createdAt,value
2022-10-18T00:02:05.832Z,8.48
2022-10-18T00:04:32.694Z,8.45
2022-10-18T00:06:59.193Z,8.38
2022-10-18T00:09:27.463Z,8.44
2022-10-18T00:11:55.082Z,8.38
2022-10-18T00:14:22.045Z,8.43
2022-10-18T00:16:48.613Z,8.40
2022-10-18T00:19:15.105Z,8.38
2022-10-18T00:21:41.588Z,8.40
2022-10-18T00:24:08.266Z,8.35
2022-10-18T00:26:34.759Z,8.29
2022-10-18T00:29:05.371Z,8.25
2022-10-18T00:31:37.038Z,8.22
2022-10-18T00:34:06.076Z,8.22
2022-10-18T00:36:34.469Z,8.15
2022-10-18T00:39:02.341Z,8.23
2022-10-18T00:41:31.237Z,8.16
2022-10-18T00:44:00.490Z,8.34
2022-10-18T00:46:32.126Z,8.30
2022-10-18T00:49:01.267Z,8.27
2022-10-18T00:51:44.976Z,8.26
2022-10-18T00:54:13.306Z,8.22
2022-10-18T00:56:39.968Z,8.24
2022-10-18T00:59:07.827Z,8.25
2022-10-18T01:01:34.403Z,8.19
2022-10-18T01:04:01.122Z,8.12
2022-10-18T01:06:28.780Z,8.10
2022-10-18T01:09:18.914Z,8.14
2022-10-18T01:12:13.289Z,8.11
2022-10-18T01:15:04.655Z,8.08
2022-10-18T01:17:34.274Z,8.09
2022-10-18T01:20:41.884Z,8.15
2022-10-18T01:23:19.191Z,8.15
2022-10-18T01:25:51.593Z,8.12
2022-10-18T01:28:53.214Z,8.07
2022-10-18T01:31:23.732Z,8.04
2022-10-18T01:36:40.486Z,8.01
2022-10-18T01:39:12.534Z,7.97
2022-10-18T01:41:41.778Z,7.97
2022-10-18T01:44:11.375Z,7.98
2022-10-18T01:46:40.409Z,7.95
2022-10-18T01:49:07.303Z,7.91
2022-10-18T01:51:34.195Z,7.89
2022-10-18T01:54:00.943Z,7.95
2022-10-18T01:56:42.747Z,7.93
2022-10-18T01:59:30.526Z,7.85
2022-10-18T02:02:18.532Z,7.82
2022-10-18T02:04:51.010Z,7.76
2022-10-18T02:07:28.767Z,7.78
2022-10-18T02:10:08.963Z,7.79
2022-10-18T02:12:40.291Z,7.79
2022-10-18T02:15:08.022Z,7.73
2022-10-18T02:17:34.814Z,7.72
2022-10-18T02:20:06.428Z,7.72
2022-10-18T02:22:33.874Z,7.69
2022-10-18T02:25:04.789Z,7.70
2022-10-18T02:27:31.340Z,7.64
2022-10-18T02:29:58.711Z,7.60
2022-10-18T02:32:34.849Z,7.54
2022-10-18T02:35:13.899Z,7.59
2022-10-18T02:37:42.623Z,7.62
2022-10-18T02:40:11.248Z,7.58
2022-10-18T02:42:46.783Z,7.56
2022-10-18T02:45:13.955Z,7.59
2022-10-18T02:47:40.456Z,7.60
2022-10-18T02:50:07.185Z,7.50
2022-10-18T02:52:33.654Z,7.54
2022-10-18T02:55:01.220Z,7.48
2022-10-18T02:57:27.870Z,7.49
2022-10-18T02:59:54.307Z,7.47
2022-10-18T03:02:20.762Z,7.54
2022-10-18T03:04:47.194Z,7.58
2022-10-18T03:07:13.651Z,7.54
2022-10-18T03:09:40.095Z,7.52
2022-10-18T03:12:06.803Z,7.49
2022-10-18T03:14:33.313Z,7.44
2022-10-18T03:16:59.738Z,7.53
2022-10-18T03:19:26.164Z,7.52
2022-10-18T03:21:52.837Z,7.50
2022-10-18T03:24:19.333Z,7.46
2022-10-18T03:26:45.779Z,7.44
2022-10-18T03:29:12.701Z,7.44
2022-10-18T03:31:39.209Z,7.40
2022-10-18T03:34:05.929Z,7.33
2022-10-18T03:36:33.910Z,7.33
2022-10-18T03:39:01.160Z,7.33
2022-10-18T03:41:28.175Z,7.27
2022-10-18T03:43:54.602Z,7.25
2022-10-18T03:46:21.042Z,7.28
2022-10-18T03:48:47.600Z,7.37
2022-10-18T03:51:13.996Z,7.37
2022-10-18T03:53:40.565Z,7.32
2022-10-18T03:56:07.058Z,7.26
2022-10-18T04:01:04.901Z,7.33
2022-10-18T04:03:31.374Z,7.35
2022-10-18T04:06:00.478Z,7.33
2022-10-18T04:08:27.309Z,7.33
2022-10-18T04:10:53.797Z,7.29
2022-10-18T04:13:20.238Z,7.21
2022-10-18T04:15:46.677Z,7.18
2022-10-18T04:18:13.102Z,7.14
2022-10-18T04:20:39.526Z,7.08
2022-10-18T04:23:05.963Z,7.07
2022-10-18T04:25:32.406Z,7.07
2022-10-18T04:27:58.881Z,7.11
2022-10-18T04:30:25.320Z,7.00
2022-10-18T04:32:51.774Z,7.05
2022-10-18T04:35:19.704Z,6.98
2022-10-18T04:37:46.129Z,7.06
2022-10-18T04:40:12.769Z,7.09
2022-10-18T04:42:39.205Z,7.06
2022-10-18T04:45:06.192Z,6.99
2022-10-18T04:47:32.837Z,7.01
2022-10-18T04:49:59.526Z,6.94
2022-10-18T04:52:25.978Z,6.98
2022-10-18T04:54:52.392Z,6.92
2022-10-18T04:57:18.891Z,6.90
2022-10-18T04:59:45.370Z,6.91
2022-10-18T05:02:11.828Z,6.91
2022-10-18T05:04:38.303Z,6.89
2022-10-18T05:07:06.586Z,6.86
2022-10-18T05:09:33.607Z,6.89
2022-10-18T05:12:00.037Z,6.97
2022-10-18T05:14:26.478Z,6.85
2022-10-18T05:16:52.903Z,6.83
2022-10-18T05:19:19.406Z,6.87
2022-10-18T05:21:45.876Z,6.94
2022-10-18T05:24:12.954Z,6.77
2022-10-18T05:26:39.361Z,6.78
2022-10-18T05:29:05.906Z,6.75
2022-10-18T05:31:32.352Z,6.74
2022-10-18T05:33:58.829Z,6.84
2022-10-18T05:36:26.155Z,6.89
2022-10-18T05:38:53.598Z,7.00
2022-10-18T05:41:20.076Z,7.04
2022-10-18T05:43:46.541Z,7.09
2022-10-18T05:46:15.431Z,7.09
2022-10-18T05:48:43.986Z,7.15
2022-10-18T05:51:10.501Z,7.19
2022-10-18T05:53:38.079Z,7.25
2022-10-18T05:56:05.975Z,7.28
2022-10-18T05:58:32.619Z,7.40
2022-10-18T06:01:00.884Z,7.48
2022-10-18T06:03:31.043Z,7.53
2022-10-18T06:06:02.146Z,7.54
2022-10-18T06:08:29.133Z,7.60
2022-10-18T06:10:55.861Z,7.66
2022-10-18T06:13:22.348Z,7.82
2022-10-18T06:15:48.917Z,8.06
2022-10-18T06:18:15.969Z,8.25
2022-10-18T06:20:42.432Z,8.47
2022-10-18T06:23:08.889Z,8.63
2022-10-18T06:25:35.329Z,8.78
2022-10-18T06:28:06.007Z,8.94
2022-10-18T06:30:34.902Z,9.01
2022-10-18T06:33:01.481Z,9.08
2022-10-18T06:35:27.997Z,9.15
2022-10-18T06:37:54.436Z,9.25
2022-10-18T06:40:20.900Z,9.42
2022-10-18T06:42:59.908Z,9.61
2022-10-18T06:45:27.145Z,9.78
2022-10-18T06:47:53.648Z,9.92
2022-10-18T06:50:20.073Z,10.10
2022-10-18T06:52:48.826Z,10.26
2022-10-18T06:55:15.296Z,10.62
2022-10-18T06:57:41.775Z,11.52
2022-10-18T07:00:09.061Z,12.83
2022-10-18T07:02:35.679Z,13.94
2022-10-18T07:05:02.103Z,15.10
2022-10-18T07:07:31.363Z,16.11
2022-10-18T07:09:58.008Z,16.96
2022-10-18T07:12:24.515Z,17.50
2022-10-18T07:14:50.916Z,17.94
2022-10-18T07:17:17.371Z,18.29
2022-10-18T07:19:43.847Z,18.64
2022-10-18T07:22:10.354Z,18.53
2022-10-18T07:24:36.822Z,18.92
2022-10-18T07:27:03.386Z,19.29
2022-10-18T07:29:29.880Z,19.58
2022-10-18T07:31:56.448Z,18.78
2022-10-18T07:34:22.921Z,19.07
2022-10-18T07:36:49.480Z,19.10
2022-10-18T07:39:16.184Z,18.66
2022-10-18T07:41:42.605Z,18.75
2022-10-18T07:44:09.217Z,18.88
2022-10-18T07:46:35.753Z,19.23
2022-10-18T07:49:02.271Z,19.41
2022-10-18T07:51:30.866Z,19.70
2022-10-18T07:53:57.340Z,19.10
2022-10-18T07:56:23.787Z,18.88
2022-10-18T07:58:52.544Z,19.32
2022-10-18T08:01:21.218Z,19.41
2022-10-18T08:03:48.113Z,19.79
2022-10-18T08:06:18.335Z,19.56
2022-10-18T08:08:45.410Z,19.29
2022-10-18T08:11:17.902Z,19.29
2022-10-18T08:13:44.649Z,19.41
2022-10-18T08:16:14.251Z,19.44
2022-10-18T08:18:41.220Z,19.55
2022-10-18T08:21:09.798Z,19.30
2022-10-18T08:23:36.845Z,19.49
2022-10-18T08:26:15.787Z,19.08
2022-10-18T08:28:49.055Z,19.23
2022-10-18T08:31:25.558Z,19.25
2022-10-18T08:33:52.056Z,19.29
2022-10-18T08:36:19.371Z,19.19
2022-10-18T08:38:46.131Z,19.51
2022-10-18T08:41:34.061Z,19.41
2022-10-18T08:44:43.995Z,19.56
2022-10-18T08:47:17.732Z,19.44
2022-10-18T08:49:51.691Z,19.59
2022-10-18T08:52:34.031Z,20.24
2022-10-18T08:55:02.935Z,20.13
2022-10-18T08:57:31.366Z,20.46
2022-10-18T08:59:58.288Z,20.50
2022-10-18T09:02:43.513Z,20.07
2022-10-18T09:05:21.972Z,19.67
2022-10-18T09:08:00.692Z,18.41
2022-10-18T09:10:38.228Z,17.91
2022-10-18T09:13:32.865Z,17.51
2022-10-18T09:16:05.673Z,17.42
2022-10-18T09:18:32.057Z,16.93
2022-10-18T09:21:02.632Z,16.71
2022-10-18T09:23:46.860Z,16.61
2022-10-18T09:26:22.018Z,16.54
2022-10-18T09:29:10.287Z,16.51
2022-10-18T09:32:11.877Z,16.29
2022-10-18T09:34:42.471Z,16.27
2022-10-18T09:37:19.098Z,16.33
2022-10-18T09:39:48.124Z,16.28
2022-10-18T09:42:26.527Z,16.26
2022-10-18T09:45:00.634Z,16.22
2022-10-18T09:47:35.296Z,16.19
2022-10-18T09:50:15.008Z,16.27
2022-10-18T09:52:49.408Z,16.14
2022-10-18T09:55:22.314Z,16.25
2022-10-18T09:57:54.593Z,16.36
2022-10-18T10:00:28.079Z,16.42
2022-10-18T10:02:55.013Z,16.42
2022-10-18T10:05:21.488Z,16.36
2022-10-18T10:07:48.971Z,16.76
2022-10-18T10:10:47.093Z,16.91
2022-10-18T10:13:23.070Z,17.25
2022-10-18T10:16:03.181Z,17.75
2022-10-18T10:18:33.233Z,17.92
2022-10-18T10:21:03.108Z,17.67
2022-10-18T10:23:33.063Z,17.51
2022-10-18T10:26:07.152Z,17.34
2022-10-18T10:28:40.588Z,17.21
2022-10-18T10:31:19.347Z,17.41
2022-10-18T10:33:47.869Z,17.49
2022-10-18T10:36:20.487Z,17.37
2022-10-18T10:39:03.243Z,17.34
2022-10-18T10:41:30.027Z,17.20
2022-10-18T10:43:56.817Z,17.12
2022-10-18T10:46:26.354Z,17.16
2022-10-18T10:49:04.495Z,17.18
2022-10-18T10:51:43.538Z,17.19
2022-10-18T10:54:22.652Z,17.14
2022-10-18T10:57:19.413Z,17.05
2022-10-18T10:59:51.947Z,17.19
2022-10-18T11:02:29.680Z,17.12
2022-10-18T11:05:15.317Z,17.13
2022-10-18T11:07:44.450Z,17.43
2022-10-18T11:10:10.831Z,17.56
2022-10-18T11:12:45.126Z,17.51
2022-10-18T11:15:14.457Z,17.51
2022-10-18T11:18:17.437Z,17.44
2022-10-18T11:21:16.709Z,17.63
2022-10-18T11:23:44.667Z,17.55
2022-10-18T11:26:11.262Z,17.47
2022-10-18T11:28:41.105Z,17.36
2022-10-18T11:31:46.342Z,17.44
2022-10-18T11:34:49.752Z,17.56
2022-10-18T11:37:32.185Z,17.60
2022-10-18T11:40:04.830Z,17.60
2022-10-18T11:42:40.181Z,17.52
2022-10-18T11:45:25.267Z,17.53
2022-10-18T11:48:11.081Z,17.78
2022-10-18T11:50:49.391Z,17.63
2022-10-18T11:53:25.012Z,17.85
2022-10-18T11:56:00.638Z,17.84
2022-10-18T11:58:30.329Z,17.82
2022-10-18T12:01:12.907Z,17.94
2022-10-18T12:03:58.675Z,18.15
2022-10-18T12:06:33.485Z,18.29
2022-10-18T12:09:04.090Z,18.41
2022-10-18T12:11:37.166Z,18.44
2022-10-18T12:14:18.895Z,18.53
2022-10-18T12:16:51.420Z,18.29
2022-10-18T12:19:27.635Z,18.15
2022-10-18T12:21:57.175Z,18.13
2022-10-18T12:24:28.690Z,18.15
2022-10-18T12:26:59.650Z,18.12
2022-10-18T12:29:46.648Z,18.01
2022-10-18T12:32:25.177Z,18.05
2022-10-18T12:35:20.584Z,18.07
2022-10-18T12:38:06.079Z,18.09
2022-10-18T12:40:40.869Z,18.11
2022-10-18T12:43:10.075Z,18.20
2022-10-18T12:45:50.849Z,18.27
2022-10-18T12:48:38.856Z,18.28
2022-10-18T12:51:17.758Z,18.17
2022-10-18T12:53:54.916Z,18.16
2022-10-18T12:56:30.860Z,18.07
2022-10-18T12:59:15.849Z,18.05
2022-10-18T13:01:51.597Z,18.16
2022-10-18T13:04:27.455Z,18.09
2022-10-18T13:07:07.895Z,18.09
2022-10-18T13:09:39.050Z,18.11
2022-10-18T13:12:12.347Z,18.18
2022-10-18T13:15:25.861Z,18.33
2022-10-18T13:18:40.131Z,18.25
2022-10-18T13:21:34.115Z,18.23
2022-10-18T13:24:16.238Z,18.29
2022-10-18T13:27:31.399Z,18.31
2022-10-18T13:30:31.620Z,18.28
2022-10-18T13:33:20.226Z,18.37
2022-10-18T13:35:51.357Z,18.36
2022-10-18T13:38:36.439Z,18.34
2022-10-18T13:41:56.519Z,18.52
2022-10-18T13:44:30.405Z,18.59
2022-10-18T13:46:56.792Z,18.52
2022-10-18T13:49:44.505Z,18.47
2022-10-18T13:52:17.088Z,18.41
2022-10-18T13:54:55.652Z,18.31
2022-10-18T13:57:24.996Z,18.33
2022-10-18T14:00:15.858Z,18.38
2022-10-18T14:03:06.404Z,18.29
2022-10-18T14:05:52.396Z,18.30
2022-10-18T14:08:44.145Z,18.41
2022-10-18T14:11:46.437Z,18.36
2022-10-18T14:14:30.481Z,18.33
2022-10-18T14:17:07.936Z,18.38
2022-10-18T14:19:52.291Z,18.39
2022-10-18T14:22:31.522Z,18.45
2022-10-18T14:24:59.401Z,18.44
2022-10-18T14:27:33.008Z,18.39
2022-10-18T14:30:20.386Z,18.34
2022-10-18T14:32:54.499Z,18.30
2022-10-18T14:35:32.521Z,18.30
2022-10-18T14:38:00.510Z,18.42
2022-10-18T14:40:34.991Z,18.33
2022-10-18T14:43:27.666Z,18.27
2022-10-18T14:45:54.193Z,18.20
2022-10-18T14:48:22.585Z,18.15
2022-10-18T14:51:01.574Z,18.08
2022-10-18T14:53:35.890Z,18.08
2022-10-18T14:56:06.432Z,18.02
2022-10-18T14:58:39.735Z,18.13
2022-10-18T15:01:07.707Z,18.07
2022-10-18T15:03:35.775Z,18.03
2022-10-18T15:06:05.288Z,17.91
2022-10-18T15:08:42.651Z,17.81
2022-10-18T15:11:14.456Z,17.73
2022-10-18T15:13:52.100Z,17.64
2022-10-18T15:16:20.214Z,17.50
2022-10-18T15:19:16.405Z,17.48
2022-10-18T15:25:06.134Z,17.19
2022-10-18T15:27:37.190Z,17.05
2022-10-18T15:30:09.261Z,16.89
2022-10-18T15:32:37.740Z,16.81
2022-10-18T15:35:14.296Z,16.73
2022-10-18T15:37:43.938Z,16.68
2022-10-18T15:40:40.686Z,16.61
2022-10-18T15:43:25.779Z,16.54
2022-10-18T15:46:05.092Z,16.43
2022-10-18T15:48:39.559Z,16.39
2022-10-18T15:51:43.136Z,16.32
2022-10-18T15:54:18.479Z,16.25
2022-10-18T15:56:45.561Z,16.13
2022-10-18T15:59:30.891Z,16.08
2022-10-18T16:01:57.911Z,16.07
2022-10-18T16:04:27.476Z,16.01
2022-10-18T16:06:55.959Z,15.96
2022-10-18T16:09:24.507Z,15.91
2022-10-18T16:11:55.801Z,15.84
2022-10-18T16:14:25.472Z,15.72
2022-10-18T16:16:55.034Z,15.70
2022-10-18T16:19:22.803Z,15.67
2022-10-18T16:21:50.242Z,15.64
2022-10-18T16:24:17.901Z,15.63
2022-10-18T16:26:44.505Z,15.58
2022-10-18T16:29:14.723Z,15.64
2022-10-18T16:31:41.578Z,15.55
2022-10-18T16:34:11.101Z,15.50
2022-10-18T16:36:37.567Z,15.39
2022-10-18T16:39:09.344Z,15.37
2022-10-18T16:41:35.770Z,15.36
2022-10-18T16:44:02.219Z,15.27
2022-10-18T16:46:31.081Z,15.22
2022-10-18T16:48:57.785Z,15.19
2022-10-18T16:51:24.472Z,15.19
2022-10-18T16:53:51.136Z,15.16
2022-10-18T16:56:30.382Z,15.12
2022-10-18T16:58:58.234Z,15.09
2022-10-18T17:01:25.755Z,15.04
2022-10-18T17:03:53.885Z,14.97
2022-10-18T17:06:29.358Z,14.93
2022-10-18T17:08:56.802Z,14.88
2022-10-18T17:11:27.636Z,14.82
2022-10-18T17:13:54.605Z,14.75
2022-10-18T17:18:57.456Z,14.82
2022-10-18T17:21:25.009Z,15.12
2022-10-18T17:23:51.823Z,15.48
2022-10-18T17:26:28.853Z,15.73
2022-10-18T17:29:05.482Z,15.87
2022-10-18T17:31:32.684Z,16.01
2022-10-18T17:34:01.643Z,16.04
2022-10-18T17:36:29.656Z,15.97
2022-10-18T17:38:56.362Z,15.91
2022-10-18T17:41:22.989Z,15.81
2022-10-18T17:43:49.479Z,15.85
2022-10-18T17:46:16.309Z,15.75
2022-10-18T17:48:42.789Z,15.64
2022-10-18T17:51:11.510Z,15.66
2022-10-18T17:53:38.022Z,15.53
2022-10-18T17:56:05.263Z,15.48
2022-10-18T17:58:32.311Z,15.39
2022-10-18T18:01:12.468Z,15.41
2022-10-18T18:03:39.025Z,15.38
2022-10-18T18:06:36.164Z,15.28
2022-10-18T18:09:07.464Z,15.23
2022-10-18T18:11:34.693Z,15.17
2022-10-18T18:14:01.607Z,15.13
2022-10-18T18:16:29.972Z,15.08
2022-10-18T18:18:58.745Z,15.07
2022-10-18T18:21:26.117Z,15.02
2022-10-18T18:23:53.070Z,14.96
2022-10-18T18:26:20.391Z,14.92
2022-10-18T18:28:47.186Z,14.91
2022-10-18T18:31:19.331Z,14.86
2022-10-18T18:33:46.318Z,14.78
2022-10-18T18:36:13.110Z,14.72
2022-10-18T18:38:42.565Z,14.64
2022-10-18T18:41:10.512Z,14.61
2022-10-18T18:43:38.648Z,14.59
2022-10-18T18:46:05.462Z,14.50
2022-10-18T18:48:34.036Z,14.47
2022-10-18T18:51:01.989Z,14.45
2022-10-18T18:53:29.672Z,14.56
2022-10-18T18:56:01.934Z,14.55
2022-10-18T18:58:28.420Z,14.61
2022-10-18T19:00:54.870Z,14.61
2022-10-18T19:03:21.309Z,14.56
2022-10-18T19:05:47.784Z,14.56
2022-10-18T19:08:14.209Z,14.61
2022-10-18T19:10:40.661Z,14.63
2022-10-18T19:13:07.147Z,14.61
2022-10-18T19:15:33.819Z,14.51
2022-10-18T19:18:00.239Z,14.41
2022-10-18T19:20:26.696Z,14.39
2022-10-18T19:22:53.585Z,14.33
2022-10-18T19:25:22.197Z,14.27
2022-10-18T19:27:51.231Z,14.30
2022-10-18T19:30:19.768Z,14.30
2022-10-18T19:32:46.185Z,14.19
2022-10-18T19:35:12.615Z,14.11
2022-10-18T19:37:39.206Z,14.01
2022-10-18T19:40:06.347Z,13.98
2022-10-18T19:42:33.214Z,13.96
2022-10-18T19:44:59.909Z,13.98
2022-10-18T19:47:26.359Z,14.03
2022-10-18T19:49:53.791Z,14.01
2022-10-18T19:52:20.219Z,14.02
2022-10-18T19:54:48.614Z,14.00
2022-10-18T19:57:15.081Z,13.84
2022-10-18T20:02:15.078Z,13.74
2022-10-18T20:04:41.695Z,13.72
2022-10-18T20:07:08.736Z,13.69
2022-10-18T20:09:35.258Z,13.64
2022-10-18T20:12:01.798Z,13.57
2022-10-18T20:14:28.223Z,13.64
2022-10-18T20:16:55.147Z,13.65
2022-10-18T20:19:21.617Z,13.64
2022-10-18T20:21:48.042Z,13.60
2022-10-18T20:24:14.479Z,13.60
2022-10-18T20:26:41.096Z,13.57
2022-10-18T20:29:08.059Z,13.52
2022-10-18T20:31:38.574Z,13.50
2022-10-18T20:34:08.108Z,13.46
2022-10-18T20:36:35.141Z,13.47
2022-10-18T20:39:02.451Z,13.38
2022-10-18T20:41:34.682Z,13.38
2022-10-18T20:44:04.046Z,13.31
2022-10-18T20:46:33.245Z,13.25
2022-10-18T20:48:59.773Z,13.23
2022-10-18T20:51:26.715Z,13.22
2022-10-18T20:53:53.640Z,13.30
2022-10-18T20:56:22.715Z,13.26
2022-10-18T20:58:51.647Z,13.23
2022-10-18T21:01:27.512Z,13.16
2022-10-18T21:03:55.548Z,13.08
2022-10-18T21:06:25.138Z,13.06
2022-10-18T21:08:56.453Z,13.04
2022-10-18T21:11:23.393Z,13.11
2022-10-18T21:13:54.453Z,13.09
2022-10-18T21:16:21.048Z,13.02
2022-10-18T21:18:47.723Z,13.10
2022-10-18T21:21:19.911Z,13.15
2022-10-18T21:23:47.426Z,13.11
2022-10-18T21:26:16.906Z,13.04
2022-10-18T21:28:43.682Z,12.95
2022-10-18T21:31:15.831Z,12.88
2022-10-18T21:33:43.098Z,12.77
2022-10-18T21:36:10.593Z,12.74
2022-10-18T21:38:37.304Z,12.67
2022-10-18T21:41:09.791Z,12.66
2022-10-18T21:43:40.286Z,12.56
2022-10-18T21:46:07.560Z,12.49
2022-10-18T21:48:34.061Z,12.30
2022-10-18T21:51:07.936Z,12.34
2022-10-18T21:53:35.211Z,12.30
2022-10-18T21:56:12.892Z,12.17
2022-10-18T21:58:39.965Z,12.10
2022-10-18T22:01:11.775Z,12.01
2022-10-18T22:03:38.406Z,11.94
2022-10-18T22:06:13.725Z,11.86
2022-10-18T22:08:41.471Z,11.85
2022-10-18T22:11:08.511Z,11.92
2022-10-18T22:13:35.206Z,11.90
2022-10-18T22:16:04.016Z,11.94
2022-10-18T22:18:31.946Z,12.00
2022-10-18T22:21:06.442Z,12.05
2022-10-18T22:23:42.169Z,12.08
2022-10-18T22:26:14.846Z,12.01
2022-10-18T22:28:43.133Z,11.92
2022-10-18T22:31:22.323Z,11.83
2022-10-18T22:33:53.687Z,11.77
2022-10-18T22:36:20.377Z,11.73
2022-10-18T22:38:46.800Z,11.67
2022-10-18T22:41:13.280Z,11.67
2022-10-18T22:43:40.197Z,11.64
2022-10-18T22:46:09.426Z,11.62
2022-10-18T22:48:36.117Z,11.57
2022-10-18T22:51:03.613Z,11.58
2022-10-18T22:53:30.430Z,11.63
2022-10-18T22:55:56.883Z,11.62
2022-10-18T22:58:23.350Z,11.54
2022-10-18T23:00:50.236Z,11.46
2022-10-18T23:03:18.682Z,11.39
2022-10-18T23:05:46.928Z,11.33
2022-10-18T23:08:14.383Z,11.23
2022-10-18T23:10:42.404Z,11.23
2022-10-18T23:13:09.557Z,11.21
2022-10-18T23:15:36.662Z,11.23
2022-10-18T23:18:03.129Z,11.26
2022-10-18T23:20:29.556Z,11.27
2022-10-18T23:22:55.983Z,11.28
2022-10-18T23:25:22.507Z,11.31
2022-10-18T23:27:48.964Z,11.24
2022-10-18T23:30:16.617Z,11.19
2022-10-18T23:32:43.075Z,11.16
2022-10-18T23:35:09.871Z,11.05
2022-10-18T23:37:36.841Z,11.08
2022-10-18T23:40:03.895Z,11.07
2022-10-18T23:42:30.362Z,11.10
2022-10-18T23:44:56.807Z,11.08
2022-10-18T23:47:23.278Z,11.03
2022-10-18T23:49:49.705Z,10.98
2022-10-18T23:52:16.209Z,10.92
2022-10-18T23:57:14.009Z,10.91
2022-10-18T23:59:40.417Z,10.89
